createdAt,value
2022-11-21T00:03:49.290Z,84.38
2022-11-21T00:08:51.732Z,74.43
2022-11-21T00:13:54.116Z,73.30
2022-11-21T00:18:56.706Z,65.90
2022-11-21T00:23:59.374Z,65.35
2022-11-21T00:29:01.777Z,68.73
2022-11-21T00:34:04.093Z,62.17
2022-11-21T00:39:07.634Z,49.70
2022-11-21T00:44:09.903Z,62.42
2022-11-21T00:49:12.173Z,62.72
2022-11-21T00:54:14.596Z,52.67
2022-11-21T00:59:16.869Z,40.58
2022-11-21T01:04:19.260Z,52.28
2022-11-21T01:09:22.581Z,48.65
2022-11-21T01:14:25.262Z,55.25
2022-11-21T01:19:27.888Z,54.97
2022-11-21T01:24:30.186Z,56.53
2022-11-21T01:29:32.474Z,56.97
2022-11-21T01:34:34.837Z,58.17
2022-11-21T01:39:37.194Z,54.45
2022-11-21T01:44:51.680Z,50.53
2022-11-21T01:49:54.081Z,51.25
2022-11-21T01:54:59.218Z,53.88
2022-11-21T02:00:16.421Z,51.67
2022-11-21T02:05:26.428Z,51.97
2022-11-21T02:10:29.283Z,46.95
2022-11-21T02:15:32.178Z,48.38
2022-11-21T02:20:36.258Z,53.45
2022-11-21T02:25:41.536Z,53.25
2022-11-21T02:30:45.422Z,52.95
2022-11-21T02:36:01.000Z,57.13
2022-11-21T02:41:26.587Z,48.00
2022-11-21T02:46:29.299Z,48.95
2022-11-21T02:51:31.600Z,47.00
2022-11-21T02:56:33.964Z,48.67
2022-11-21T03:01:36.559Z,48.67
2022-11-21T03:06:38.866Z,45.42
2022-11-21T03:11:41.126Z,47.58
2022-11-21T03:16:43.412Z,49.88
2022-11-21T03:21:45.680Z,45.53
2022-11-21T03:26:48.207Z,46.47
2022-11-21T03:31:50.740Z,47.15
2022-11-21T03:36:53.085Z,44.35
2022-11-21T03:41:55.503Z,40.70
2022-11-21T03:46:57.866Z,41.30
2022-11-21T03:52:00.235Z,46.65
2022-11-21T03:57:03.181Z,47.38
2022-11-21T04:02:05.767Z,39.80
2022-11-21T04:07:08.915Z,53.35
2022-11-21T04:12:12.410Z,58.37
2022-11-21T04:17:14.716Z,54.53
2022-11-21T04:22:21.123Z,48.58
2022-11-21T04:27:23.495Z,54.97
2022-11-21T04:32:25.798Z,54.67
2022-11-21T04:37:28.089Z,55.63
2022-11-21T04:42:30.492Z,55.75
2022-11-21T04:47:32.775Z,52.22
2022-11-21T04:52:35.592Z,55.08
2022-11-21T04:57:38.012Z,52.90
2022-11-21T05:02:40.256Z,60.83
2022-11-21T05:07:42.561Z,60.85
2022-11-21T05:13:03.746Z,55.10
2022-11-21T05:18:06.440Z,58.08
2022-11-21T05:23:08.702Z,56.10
2022-11-21T05:28:11.001Z,57.85
2022-11-21T05:33:13.264Z,61.03
2022-11-21T05:38:15.524Z,61.88
2022-11-21T05:43:36.241Z,62.15
2022-11-21T05:48:38.616Z,62.78
2022-11-21T05:53:41.275Z,56.20
2022-11-21T05:58:43.962Z,51.42
2022-11-21T06:03:47.249Z,47.27
2022-11-21T06:08:49.519Z,63.97
2022-11-21T06:13:52.956Z,62.55
2022-11-21T06:18:58.559Z,63.17
2022-11-21T06:24:02.237Z,63.50
2022-11-21T06:29:04.563Z,64.15
2022-11-21T06:34:06.822Z,66.45
2022-11-21T06:39:09.174Z,74.70
2022-11-21T06:44:11.540Z,83.15
2022-11-21T06:49:13.863Z,99.88
2022-11-21T06:54:28.507Z,89.28
2022-11-21T06:59:30.911Z,83.10
2022-11-21T07:04:33.163Z,88.15
2022-11-21T07:09:36.004Z,98.97
2022-11-21T07:14:38.711Z,80.88
2022-11-21T07:19:41.589Z,109.10
2022-11-21T07:24:43.848Z,152.60
2022-11-21T07:29:46.178Z,203.13
2022-11-21T07:34:50.973Z,143.18
2022-11-21T07:39:53.439Z,125.65
2022-11-21T07:44:57.271Z,109.75
2022-11-21T07:50:00.590Z,98.40
2022-11-21T07:55:03.830Z,88.75
2022-11-21T08:00:06.843Z,88.00
2022-11-21T08:05:09.253Z,78.13
2022-11-21T08:10:11.868Z,113.70
2022-11-21T08:15:14.289Z,97.63
2022-11-21T08:20:17.277Z,138.43
2022-11-21T08:25:19.559Z,167.80
2022-11-21T08:30:22.872Z,155.20
2022-11-21T08:40:30.174Z,150.75
2022-11-21T08:45:34.327Z,145.25
2022-11-21T08:50:37.087Z,118.80
2022-11-21T08:55:39.344Z,159.30
2022-11-21T09:00:44.563Z,129.60
2022-11-21T09:05:46.880Z,116.97
2022-11-21T09:10:49.182Z,100.43
2022-11-21T09:16:10.200Z,96.22
2022-11-21T09:21:16.899Z,91.60
2022-11-21T09:26:19.162Z,116.57
2022-11-21T09:31:21.450Z,110.65
2022-11-21T09:36:24.998Z,106.82
2022-11-21T09:41:54.848Z,122.05
2022-11-21T09:47:11.051Z,87.32
2022-11-21T09:52:15.908Z,89.28
2022-11-21T09:57:20.531Z,88.53
2022-11-21T10:02:24.344Z,104.53
2022-11-21T10:07:34.061Z,100.60
2022-11-21T10:13:03.100Z,105.70
2022-11-21T10:18:29.898Z,109.72
2022-11-21T10:23:47.618Z,134.18
2022-11-21T10:29:10.120Z,107.72
2022-11-21T10:34:16.186Z,161.13
2022-11-21T10:39:21.096Z,149.35
2022-11-21T10:44:49.397Z,108.40
2022-11-21T10:50:25.375Z,124.22
2022-11-21T10:55:27.744Z,132.25
2022-11-21T11:00:33.491Z,142.93
2022-11-21T11:05:37.630Z,132.63
2022-11-21T11:10:47.887Z,136.38
2022-11-21T11:16:06.883Z,121.63
2022-11-21T11:21:16.993Z,127.63
2022-11-21T11:26:53.057Z,98.00
2022-11-21T11:32:28.808Z,111.10
2022-11-21T11:37:42.357Z,108.78
2022-11-21T11:43:35.658Z,126.45
2022-11-21T11:49:03.646Z,96.57
2022-11-21T11:54:13.111Z,107.22
2022-11-21T11:59:26.208Z,102.75
2022-11-21T12:04:34.153Z,128.48
2022-11-21T12:09:54.684Z,115.65
2022-11-21T12:15:15.930Z,115.35
2022-11-21T12:20:23.175Z,107.40
2022-11-21T12:25:30.256Z,109.63
2022-11-21T12:30:49.818Z,102.95
2022-11-21T12:36:17.837Z,256.27
2022-11-21T12:41:50.289Z,628.50
2022-11-21T12:47:06.324Z,156.70
2022-11-21T12:52:33.935Z,117.35
2022-11-21T12:57:58.377Z,112.82
2022-11-21T13:03:34.291Z,97.82
2022-11-21T13:08:47.154Z,90.97
2022-11-21T13:13:58.352Z,83.20
2022-11-21T13:39:59.430Z,73.13
2022-11-21T13:45:36.996Z,56.13
2022-11-21T14:18:08.403Z,182.40
2022-11-21T14:23:22.259Z,74.45
2022-11-21T14:33:32.538Z,125.15
2022-11-21T14:44:21.352Z,124.30
2022-11-21T14:49:25.948Z,143.20
2022-11-21T14:54:32.270Z,108.20
2022-11-21T14:59:42.236Z,109.35
2022-11-21T15:04:45.456Z,142.40
2022-11-21T15:15:34.647Z,105.97
2022-11-21T15:20:37.602Z,137.55
2022-11-21T15:25:47.259Z,145.03
2022-11-21T15:31:14.471Z,180.45
2022-11-21T15:36:17.165Z,91.40
2022-11-21T15:41:35.635Z,65.55
2022-11-21T15:46:51.590Z,169.57
2022-11-21T15:52:06.904Z,210.68
2022-11-21T15:57:24.637Z,181.55
2022-11-21T16:02:27.002Z,131.95
2022-11-21T16:07:29.627Z,195.38
2022-11-21T16:12:31.995Z,139.45
2022-11-21T16:17:34.341Z,175.73
2022-11-21T16:22:36.811Z,151.88
2022-11-21T16:27:39.253Z,157.10
2022-11-21T16:32:43.083Z,140.25
2022-11-21T16:42:47.922Z,121.32
2022-11-21T16:47:50.191Z,67.68
2022-11-21T16:52:54.764Z,67.57
2022-11-21T16:58:02.021Z,68.00
2022-11-21T17:03:10.515Z,57.53
2022-11-21T17:08:13.448Z,56.00
2022-11-21T17:13:19.937Z,52.45
2022-11-21T17:18:22.389Z,74.85
2022-11-21T17:23:26.031Z,86.15
2022-11-21T17:28:45.061Z,181.15
2022-11-21T17:33:56.214Z,130.25
2022-11-21T17:38:59.372Z,97.93
2022-11-21T17:44:28.238Z,105.93
2022-11-21T17:49:39.230Z,83.60
2022-11-21T18:00:07.020Z,131.32
2022-11-21T18:05:11.023Z,103.13
2022-11-21T18:10:41.678Z,62.92
2022-11-21T18:15:40.728Z,52.72
2022-11-21T18:20:43.074Z,53.53
2022-11-21T18:25:45.471Z,57.78
2022-11-21T18:30:47.732Z,79.28
2022-11-21T18:35:50.223Z,99.57
2022-11-21T18:40:52.590Z,65.95
2022-11-21T18:45:54.886Z,57.97
2022-11-21T18:51:03.753Z,121.28
2022-11-21T18:56:10.513Z,118.65
2022-11-21T19:01:34.601Z,113.03
2022-11-21T19:06:40.881Z,70.97
2022-11-21T19:12:39.738Z,91.90
2022-11-21T19:18:25.292Z,79.03
2022-11-21T19:23:44.046Z,87.78
2022-11-21T19:28:52.023Z,124.60
2022-11-21T19:33:58.117Z,141.45
2022-11-21T19:39:04.439Z,114.28
2022-11-21T19:44:43.006Z,94.65
2022-11-21T19:55:29.181Z,74.60
2022-11-21T20:00:33.111Z,60.97
2022-11-21T20:05:37.557Z,57.25
2022-11-21T20:10:39.884Z,53.75
2022-11-21T20:15:43.374Z,57.65
2022-11-21T20:20:57.034Z,70.13
2022-11-21T20:26:00.470Z,60.45
2022-11-21T20:31:06.745Z,75.32
2022-11-21T20:36:19.495Z,66.45
2022-11-21T20:41:27.064Z,66.97
2022-11-21T20:46:31.944Z,70.75
2022-11-21T20:52:56.026Z,145.45
2022-11-21T20:57:18.964Z,124.80
2022-11-21T21:02:21.448Z,112.75
2022-11-21T21:07:24.180Z,105.72
2022-11-21T21:12:32.356Z,75.63
2022-11-21T21:17:35.191Z,72.35
2022-11-21T21:22:39.166Z,55.50
2022-11-21T21:27:42.264Z,92.55
2022-11-21T21:32:44.923Z,163.00
2022-11-21T21:37:48.453Z,154.93
2022-11-21T21:42:52.906Z,117.43
2022-11-21T21:47:55.273Z,70.30
2022-11-21T21:53:00.523Z,52.75
2022-11-21T21:58:02.879Z,55.58
2022-11-21T22:03:05.647Z,57.70
2022-11-21T22:08:07.954Z,61.40
2022-11-21T22:13:10.355Z,56.75
2022-11-21T22:18:15.230Z,53.72
2022-11-21T22:23:18.388Z,58.40
2022-11-21T22:28:20.724Z,49.47
2022-11-21T22:33:23.292Z,52.28
2022-11-21T22:38:25.648Z,46.88
2022-11-21T22:43:29.071Z,36.72
2022-11-21T22:48:32.146Z,38.63
2022-11-21T22:53:39.994Z,31.70
2022-11-21T22:58:42.708Z,36.40
2022-11-21T23:03:45.465Z,36.97
2022-11-21T23:08:47.959Z,31.37
2022-11-21T23:13:52.100Z,35.92
2022-11-21T23:18:55.561Z,32.08
2022-11-21T23:23:58.085Z,41.20
2022-11-21T23:29:06.740Z,50.75
2022-11-21T23:34:11.443Z,48.95
2022-11-21T23:39:13.706Z,38.85
2022-11-21T23:44:16.226Z,50.58
2022-11-21T23:49:18.512Z,60.03
2022-11-21T23:54:21.085Z,58.13
2022-11-21T23:59:23.428Z,65.40
